createdAt,value
2023-05-28T00:01:29.069Z,98043.19
2023-05-28T00:03:56.830Z,98042.63
2023-05-28T00:06:24.479Z,98046.38
2023-05-28T00:08:52.009Z,98037.19
2023-05-28T00:11:19.566Z,98042.91
2023-05-28T00:13:47.033Z,98041.06
2023-05-28T00:16:15.330Z,98043.78
2023-05-28T00:18:44.057Z,98035.84
2023-05-28T00:21:11.742Z,98035.06
2023-05-28T00:23:39.241Z,98032.94
2023-05-28T00:26:07.062Z,98034.50
2023-05-28T00:28:34.563Z,98030.53
2023-05-28T00:31:03.482Z,98028.50
2023-05-28T00:33:30.981Z,98023.69
2023-05-28T00:35:59.949Z,98021.69
2023-05-28T00:38:27.630Z,98021.25
2023-05-28T00:40:55.699Z,98023.78
2023-05-28T00:43:23.580Z,98024.41
2023-05-28T00:45:52.883Z,98029.81
2023-05-28T00:48:21.235Z,98019.19
2023-05-28T00:50:49.365Z,98020.94
2023-05-28T00:53:18.583Z,98028.25
2023-05-28T00:55:46.496Z,98015.91
2023-05-28T00:58:14.434Z,98023.03
2023-05-28T01:00:44.130Z,98024.13
2023-05-28T01:03:11.936Z,98026.22
2023-05-28T01:05:39.689Z,98021.41
2023-05-28T01:08:08.573Z,98018.97
2023-05-28T01:10:38.247Z,98015.00
2023-05-28T01:13:08.964Z,98023.72
2023-05-28T01:15:38.236Z,98011.69
2023-05-28T01:18:07.359Z,98012.72
2023-05-28T01:20:35.007Z,98008.84
2023-05-28T01:23:08.725Z,98008.84
2023-05-28T01:25:38.645Z,98002.22
2023-05-28T01:28:13.822Z,98001.16
2023-05-28T01:30:41.391Z,97998.06
2023-05-28T01:33:09.089Z,98001.41
2023-05-28T01:35:36.773Z,98004.97
2023-05-28T01:38:05.470Z,98002.06
2023-05-28T01:40:34.831Z,98004.16
2023-05-28T01:43:04.801Z,98007.66
2023-05-28T01:45:32.829Z,98006.03
2023-05-28T01:48:00.430Z,98007.47
2023-05-28T01:50:29.650Z,98010.81
2023-05-28T01:52:57.328Z,98004.00
2023-05-28T01:55:25.371Z,98005.44
2023-05-28T01:57:52.930Z,98006.91
2023-05-28T02:00:23.407Z,98007.31
2023-05-28T02:02:51.003Z,98008.56
2023-05-28T02:05:18.790Z,98010.63
2023-05-28T02:07:46.332Z,98003.78
2023-05-28T02:10:13.897Z,98007.13
2023-05-28T02:12:41.366Z,98006.69
2023-05-28T02:15:09.504Z,98000.88
2023-05-28T02:17:38.411Z,97997.78
2023-05-28T02:20:07.170Z,98002.56
2023-05-28T02:22:34.732Z,97998.22
2023-05-28T02:25:02.249Z,98000.94
2023-05-28T02:27:29.769Z,97987.63
2023-05-28T02:29:57.306Z,97995.13
2023-05-28T02:32:24.930Z,97988.06
2023-05-28T02:34:55.616Z,97991.38
2023-05-28T02:37:24.898Z,97996.59
2023-05-28T02:39:52.716Z,97988.09
2023-05-28T02:42:20.262Z,97985.81
2023-05-28T02:44:47.738Z,97990.59
2023-05-28T02:47:15.222Z,97984.13
2023-05-28T02:49:42.750Z,97982.91
2023-05-28T02:52:11.589Z,97992.88
2023-05-28T02:54:39.090Z,97986.44
2023-05-28T02:57:07.119Z,97984.78
2023-05-28T02:59:34.659Z,97990.78
2023-05-28T03:02:02.222Z,97987.28
2023-05-28T03:04:29.761Z,97985.19
2023-05-28T03:06:57.275Z,97990.78
2023-05-28T03:09:26.101Z,97998.91
2023-05-28T03:11:53.613Z,97988.94
2023-05-28T03:14:21.112Z,97988.53
2023-05-28T03:16:48.830Z,97991.41
2023-05-28T03:19:16.418Z,98003.00
2023-05-28T03:21:43.898Z,97994.53
2023-05-28T03:24:11.410Z,97994.75
2023-05-28T03:26:40.393Z,97995.78
2023-05-28T03:29:07.861Z,97992.03
2023-05-28T03:31:45.369Z,97991.63
2023-05-28T03:34:13.222Z,97995.56
2023-05-28T03:36:41.495Z,97997.22
2023-05-28T03:39:09.247Z,97988.72
2023-05-28T03:41:37.099Z,97985.81
2023-05-28T03:44:07.271Z,97983.50
2023-05-28T03:46:34.962Z,97977.19
2023-05-28T03:49:02.534Z,97973.31
2023-05-28T03:51:30.212Z,97964.25
2023-05-28T03:53:57.696Z,97969.47
2023-05-28T03:56:25.466Z,97969.06
2023-05-28T03:58:53.013Z,97970.91
2023-05-28T04:01:21.984Z,97969.25
2023-05-28T04:03:49.608Z,97974.44
2023-05-28T04:06:17.516Z,97969.25
2023-05-28T04:08:45.079Z,97969.66
2023-05-28T04:11:12.590Z,97966.34
2023-05-28T04:13:40.254Z,97965.31
2023-05-28T04:16:08.539Z,97967.16
2023-05-28T04:18:37.483Z,97972.78
2023-05-28T04:21:05.215Z,97971.31
2023-05-28T04:23:32.703Z,97971.50
2023-05-28T04:26:00.846Z,97970.88
2023-05-28T04:28:28.808Z,97972.91
2023-05-28T04:30:56.898Z,97973.97
2023-05-28T04:33:25.055Z,97972.28
2023-05-28T04:35:54.277Z,97975.78
2023-05-28T04:38:22.196Z,97973.50
2023-05-28T04:40:50.524Z,97970.56
2023-05-28T04:43:18.255Z,97987.00
2023-05-28T04:45:45.749Z,97972.59
2023-05-28T04:48:13.262Z,97975.00
2023-05-28T04:50:41.315Z,97982.94
2023-05-28T04:53:10.267Z,97987.50
2023-05-28T04:55:37.773Z,97976.03
2023-05-28T04:58:05.292Z,97980.09
2023-05-28T05:00:32.783Z,97988.88
2023-05-28T05:03:00.370Z,97978.69
2023-05-28T05:05:27.961Z,97989.13
2023-05-28T05:07:55.436Z,97975.28
2023-05-28T05:10:24.608Z,97978.00
2023-05-28T05:12:52.153Z,97980.03
2023-05-28T05:15:19.707Z,97988.06
2023-05-28T05:17:47.890Z,97986.19
2023-05-28T05:20:15.509Z,97993.84
2023-05-28T05:22:43.054Z,97992.53
2023-05-28T05:25:11.019Z,97990.25
2023-05-28T05:27:39.873Z,97976.47
2023-05-28T05:30:09.120Z,97995.63
2023-05-28T05:32:36.680Z,97997.50
2023-05-28T05:35:04.543Z,97990.97
2023-05-28T05:37:32.051Z,97987.75
2023-05-28T05:39:59.582Z,97979.72
2023-05-28T05:42:27.079Z,97973.66
2023-05-28T05:44:56.005Z,97984.09
2023-05-28T05:47:23.573Z,97984.28
2023-05-28T05:49:51.122Z,97981.63
2023-05-28T05:52:18.603Z,97987.81
2023-05-28T05:54:46.330Z,97982.47
2023-05-28T05:57:14.126Z,97984.63
2023-05-28T05:59:41.616Z,97976.09
2023-05-28T06:02:10.994Z,97970.22
2023-05-28T06:04:39.309Z,97977.97
2023-05-28T06:07:07.746Z,97965.81
2023-05-28T06:09:35.449Z,97982.00
2023-05-28T06:12:03.958Z,97978.34
2023-05-28T06:14:31.455Z,97976.56
2023-05-28T06:16:59.019Z,97977.53
2023-05-28T06:19:27.920Z,97984.38
2023-05-28T06:21:55.406Z,97986.47
2023-05-28T06:24:22.954Z,97987.00
2023-05-28T06:26:50.465Z,97973.09
2023-05-28T06:29:17.957Z,97979.25
2023-05-28T06:31:45.674Z,97979.19
2023-05-28T06:34:13.200Z,97973.75
2023-05-28T06:36:42.620Z,97970.34
2023-05-28T06:39:10.472Z,97973.03
2023-05-28T06:41:38.075Z,97974.66
2023-05-28T06:44:05.827Z,97975.59
2023-05-28T06:46:33.518Z,97971.09
2023-05-28T06:49:01.337Z,97972.34
2023-05-28T06:51:28.857Z,97981.16
2023-05-28T06:53:57.707Z,97981.72
2023-05-28T06:56:25.474Z,97981.34
2023-05-28T06:58:53.001Z,97988.81
2023-05-28T07:01:20.562Z,97984.63
2023-05-28T07:03:48.165Z,97986.56
2023-05-28T07:06:16.191Z,97992.53
2023-05-28T07:08:45.571Z,97993.03
2023-05-28T07:11:15.137Z,97986.28
2023-05-28T07:13:42.777Z,97997.75
2023-05-28T07:16:10.323Z,97990.19
2023-05-28T07:18:38.184Z,97989.19
2023-05-28T07:21:06.687Z,97994.00
2023-05-28T07:23:34.306Z,97996.84
2023-05-28T07:26:03.267Z,98000.38
2023-05-28T07:28:32.392Z,97992.94
2023-05-28T07:30:59.935Z,97994.00
2023-05-28T07:33:27.430Z,97990.47
2023-05-28T07:35:55.230Z,97989.53
2023-05-28T07:38:22.877Z,97994.59
2023-05-28T07:40:51.769Z,97992.59
2023-05-28T07:43:19.265Z,97993.91
2023-05-28T07:45:48.148Z,97990.16
2023-05-28T07:48:15.831Z,97987.53
2023-05-28T07:50:43.392Z,97981.59
2023-05-28T07:53:11.465Z,97984.63
2023-05-28T07:55:39.320Z,97992.97
2023-05-28T07:58:07.025Z,97985.56
2023-05-28T08:00:34.564Z,97985.66
2023-05-28T08:03:03.537Z,97991.03
2023-05-28T08:05:31.650Z,97978.59
2023-05-28T08:07:59.222Z,97975.66
2023-05-28T08:10:26.758Z,97985.72
2023-05-28T08:12:54.287Z,97978.28
2023-05-28T08:15:21.957Z,97984.72
2023-05-28T08:17:49.525Z,97981.38
2023-05-28T08:20:18.637Z,97982.91
2023-05-28T08:22:46.155Z,97969.28
2023-05-28T08:25:13.994Z,97982.06
2023-05-28T08:27:41.553Z,97981.53
2023-05-28T08:30:10.210Z,97964.50
2023-05-28T08:32:37.768Z,97972.94
2023-05-28T08:35:05.780Z,97970.53
2023-05-28T08:37:34.806Z,97967.03
2023-05-28T08:40:02.380Z,97973.69
2023-05-28T08:42:29.891Z,97969.97
2023-05-28T08:44:57.443Z,97968.97
2023-05-28T08:47:25.327Z,97965.03
2023-05-28T08:49:54.338Z,97959.69
2023-05-28T08:52:22.702Z,97963.41
2023-05-28T08:54:51.790Z,97948.13
2023-05-28T08:57:20.073Z,97961.75
2023-05-28T08:59:49.252Z,97962.25
2023-05-28T09:02:16.786Z,97962.19
2023-05-28T09:04:47.105Z,97962.00
2023-05-28T09:07:14.692Z,97968.06
2023-05-28T09:09:42.601Z,97961.56
2023-05-28T09:12:14.078Z,97955.16
2023-05-28T09:14:43.506Z,97960.13
2023-05-28T09:17:11.777Z,97950.03
2023-05-28T09:19:39.538Z,97954.47
2023-05-28T09:22:07.195Z,97949.72
2023-05-28T09:24:34.795Z,97948.63
2023-05-28T09:27:02.773Z,97951.47
2023-05-28T09:29:31.783Z,97945.69
2023-05-28T09:32:01.096Z,97944.56
2023-05-28T09:34:29.782Z,97935.25
2023-05-28T09:37:01.786Z,97933.69
2023-05-28T09:39:29.500Z,97943.38
2023-05-28T09:42:01.473Z,97933.31
2023-05-28T09:44:33.430Z,97941.09
2023-05-28T09:47:03.707Z,97936.47
2023-05-28T09:49:31.801Z,97933.13
2023-05-28T09:52:00.658Z,97934.56
2023-05-28T09:54:32.663Z,97926.13
2023-05-28T09:57:03.110Z,97920.97
2023-05-28T09:59:33.388Z,97918.53
2023-05-28T10:02:06.752Z,97920.19
2023-05-28T10:04:38.072Z,97919.41
2023-05-28T10:07:06.547Z,97917.25
2023-05-28T10:09:35.039Z,97921.44
2023-05-28T10:12:10.878Z,97914.59
2023-05-28T10:14:41.883Z,97915.91
2023-05-28T10:17:10.356Z,97912.41
2023-05-28T10:19:39.450Z,97909.72
2023-05-28T10:22:07.846Z,97906.56
2023-05-28T10:24:36.285Z,97896.88
2023-05-28T10:27:06.850Z,97900.91
2023-05-28T10:29:42.112Z,97905.16
2023-05-28T10:32:09.710Z,97892.66
2023-05-28T10:34:38.484Z,97890.59
2023-05-28T10:37:08.547Z,97900.28
2023-05-28T10:39:39.691Z,97897.56
2023-05-28T10:42:09.936Z,97899.81
2023-05-28T10:45:07.771Z,97903.47
2023-05-28T10:47:36.667Z,97898.50
2023-05-28T10:50:17.416Z,97900.81
2023-05-28T10:53:04.949Z,97900.66
2023-05-28T10:55:48.352Z,97904.31
2023-05-28T10:58:24.759Z,97888.50
2023-05-28T11:00:54.371Z,97894.81
2023-05-28T11:03:46.672Z,97884.63
2023-05-28T11:06:15.127Z,97878.97
2023-05-28T11:08:44.206Z,97891.44
2023-05-28T11:11:16.657Z,97883.72
2023-05-28T11:13:45.762Z,97886.75
2023-05-28T11:16:16.804Z,97880.47
2023-05-28T11:19:02.293Z,97874.50
2023-05-28T11:21:30.010Z,97877.00
2023-05-28T11:24:01.861Z,97869.91
2023-05-28T11:26:29.629Z,97860.41
2023-05-28T11:28:57.279Z,97862.81
2023-05-28T11:31:26.401Z,97871.34
2023-05-28T11:33:54.057Z,97876.81
2023-05-28T11:36:22.424Z,97871.38
2023-05-28T11:39:01.798Z,97861.78
2023-05-28T11:41:29.361Z,97855.47
2023-05-28T11:43:56.850Z,97857.69
2023-05-28T11:46:25.990Z,97856.59
2023-05-28T11:48:53.561Z,97865.88
2023-05-28T11:51:21.793Z,97867.75
2023-05-28T11:53:49.520Z,97857.94
2023-05-28T11:56:17.087Z,97863.72
2023-05-28T11:58:49.336Z,97861.53
2023-05-28T12:01:18.543Z,97851.69
2023-05-28T12:03:47.622Z,97854.09
2023-05-28T12:06:23.018Z,97851.91
2023-05-28T12:08:56.606Z,97863.69
2023-05-28T12:11:27.606Z,97866.19
2023-05-28T12:13:55.149Z,97857.94
2023-05-28T12:16:22.841Z,97858.78
2023-05-28T12:18:51.852Z,97851.94
2023-05-28T12:21:21.384Z,97852.19
2023-05-28T12:23:49.069Z,97854.06
2023-05-28T12:26:17.023Z,97850.59
2023-05-28T12:28:44.432Z,97842.34
2023-05-28T12:31:12.204Z,97841.50
2023-05-28T12:36:10.063Z,97846.16
2023-05-28T12:38:37.699Z,97841.81
2023-05-28T12:41:05.781Z,97834.66
2023-05-28T12:43:33.304Z,97842.38
2023-05-28T12:46:01.195Z,97840.44
2023-05-28T12:48:28.953Z,97839.63
2023-05-28T12:50:56.775Z,97836.34
2023-05-28T12:53:25.875Z,97828.66
2023-05-28T12:55:53.535Z,97830.84
2023-05-28T12:58:22.272Z,97828.69
2023-05-28T13:00:50.738Z,97829.22
2023-05-28T13:03:20.737Z,97833.56
2023-05-28T13:05:48.495Z,97833.88
2023-05-28T13:08:17.692Z,97833.59
2023-05-28T13:10:46.580Z,97823.72
2023-05-28T13:13:14.146Z,97815.00
2023-05-28T13:15:42.032Z,97819.31
2023-05-28T13:18:09.493Z,97805.66
2023-05-28T13:20:37.062Z,97817.56
2023-05-28T13:23:04.690Z,97805.41
2023-05-28T13:25:32.334Z,97804.25
2023-05-28T13:28:02.995Z,97795.72
2023-05-28T13:30:31.091Z,97803.19
2023-05-28T13:32:58.812Z,97795.53
2023-05-28T13:35:26.406Z,97794.94
2023-05-28T13:37:54.099Z,97798.47
2023-05-28T13:40:22.442Z,97791.06
2023-05-28T13:42:50.872Z,97787.19
2023-05-28T13:45:19.853Z,97787.50
2023-05-28T13:47:47.523Z,97788.13
2023-05-28T13:50:15.805Z,97777.94
2023-05-28T13:52:45.311Z,97779.84
2023-05-28T13:55:12.862Z,97778.53
2023-05-28T13:57:40.427Z,97785.38
2023-05-28T14:00:11.658Z,97771.44
2023-05-28T14:02:42.151Z,97764.41
2023-05-28T14:05:10.238Z,97782.06
2023-05-28T14:07:37.891Z,97775.44
2023-05-28T14:10:06.219Z,97766.41
2023-05-28T14:12:33.745Z,97765.88
2023-05-28T14:15:02.156Z,97761.00
2023-05-28T14:17:29.791Z,97770.38
2023-05-28T14:19:58.816Z,97761.94
2023-05-28T14:22:26.799Z,97760.84
2023-05-28T14:24:54.389Z,97756.47
2023-05-28T14:27:22.060Z,97757.13
2023-05-28T14:29:49.629Z,97752.69
2023-05-28T14:32:17.166Z,97757.97
2023-05-28T14:34:46.074Z,97755.75
2023-05-28T14:37:15.055Z,97756.97
2023-05-28T14:39:42.750Z,97745.69
2023-05-28T14:42:10.488Z,97755.09
2023-05-28T14:44:38.029Z,97752.47
2023-05-28T14:47:06.341Z,97750.97
2023-05-28T14:49:34.091Z,97748.97
2023-05-28T14:52:24.295Z,97752.41
2023-05-28T14:54:51.853Z,97750.94
2023-05-28T14:57:19.842Z,97749.84
2023-05-28T14:59:47.386Z,97753.94
2023-05-28T15:02:15.206Z,97742.38
2023-05-28T15:04:45.212Z,97746.66
2023-05-28T15:07:14.139Z,97741.91
2023-05-28T15:09:43.040Z,97747.78
2023-05-28T15:12:12.115Z,97738.47
2023-05-28T15:14:39.612Z,97731.84
2023-05-28T15:17:07.195Z,97726.53
2023-05-28T15:19:36.093Z,97732.16
2023-05-28T15:22:05.156Z,97733.09
2023-05-28T15:24:33.064Z,97736.00
2023-05-28T15:27:02.321Z,97735.75
2023-05-28T15:29:30.848Z,97721.19
2023-05-28T15:31:59.040Z,97731.34
2023-05-28T15:34:27.062Z,97729.44
2023-05-28T15:36:55.112Z,97723.66
2023-05-28T15:39:23.203Z,97725.38
2023-05-28T15:41:53.464Z,97722.97
2023-05-28T15:44:23.050Z,97718.31
2023-05-28T15:46:50.803Z,97716.16
2023-05-28T15:49:18.222Z,97716.13
2023-05-28T15:51:45.781Z,97718.66
2023-05-28T15:54:14.693Z,97717.81
2023-05-28T15:56:42.428Z,97713.84
2023-05-28T15:59:10.314Z,97713.50
2023-05-28T16:01:41.554Z,97712.63
2023-05-28T16:04:09.796Z,97708.81
2023-05-28T16:06:37.691Z,97708.28
2023-05-28T16:09:06.253Z,97697.63
2023-05-28T16:11:37.864Z,97706.28
2023-05-28T16:14:07.339Z,97701.97
2023-05-28T16:16:36.457Z,97702.50
2023-05-28T16:19:05.968Z,97707.63
2023-05-28T16:21:35.591Z,97704.41
2023-05-28T16:24:03.259Z,97700.34
2023-05-28T16:26:31.355Z,97701.09
2023-05-28T16:28:59.050Z,97710.69
2023-05-28T16:31:27.209Z,97695.09
2023-05-28T16:33:54.942Z,97701.41
2023-05-28T16:36:24.334Z,97696.78
2023-05-28T16:38:53.838Z,97705.56
2023-05-28T16:41:22.921Z,97694.78
2023-05-28T16:43:51.118Z,97690.00
2023-05-28T16:46:20.299Z,97696.03
2023-05-28T16:48:48.468Z,97697.69
2023-05-28T16:51:17.646Z,97694.13
2023-05-28T16:53:47.633Z,97696.09
2023-05-28T16:56:16.420Z,97703.25
2023-05-28T16:58:43.989Z,97697.50
2023-05-28T17:01:11.512Z,97694.19
2023-05-28T17:03:39.359Z,97698.84
2023-05-28T17:06:06.898Z,97688.72
2023-05-28T17:08:34.627Z,97689.81
2023-05-28T17:11:03.436Z,97689.25
2023-05-28T17:13:31.008Z,97689.28
2023-05-28T17:15:58.571Z,97694.78
2023-05-28T17:18:26.119Z,97696.19
2023-05-28T17:20:53.734Z,97698.09
2023-05-28T17:23:21.793Z,97694.25
2023-05-28T17:25:49.307Z,97695.66
2023-05-28T17:28:18.133Z,97692.09
2023-05-28T17:30:45.678Z,97695.66
2023-05-28T17:33:13.333Z,97695.97
2023-05-28T17:35:41.079Z,97686.38
2023-05-28T17:38:11.500Z,97692.47
2023-05-28T17:40:39.070Z,97689.47
2023-05-28T17:43:06.784Z,97691.66
2023-05-28T17:45:35.868Z,97689.72
2023-05-28T17:48:04.904Z,97697.41
2023-05-28T17:50:32.532Z,97697.09
2023-05-28T17:53:00.011Z,97701.47
2023-05-28T17:55:27.514Z,97712.19
2023-05-28T17:57:54.980Z,97705.06
2023-05-28T18:00:22.896Z,97708.91
2023-05-28T18:02:52.702Z,97715.72
2023-05-28T18:05:20.320Z,97705.06
2023-05-28T18:07:47.821Z,97709.41
2023-05-28T18:10:15.460Z,97707.50
2023-05-28T18:12:43.576Z,97715.16
2023-05-28T18:15:12.305Z,97714.53
2023-05-28T18:17:40.050Z,97722.22
2023-05-28T18:20:10.507Z,97721.06
2023-05-28T18:22:38.153Z,97719.94
2023-05-28T18:25:07.667Z,97725.66
2023-05-28T18:27:35.284Z,97718.25
2023-05-28T18:30:02.861Z,97725.06
2023-05-28T18:32:30.502Z,97723.91
2023-05-28T18:34:58.734Z,97729.72
2023-05-28T18:37:27.614Z,97727.97
2023-05-28T18:39:55.122Z,97729.09
2023-05-28T18:42:22.672Z,97726.59
2023-05-28T18:44:50.246Z,97727.38
2023-05-28T18:47:17.973Z,97733.44
2023-05-28T18:49:45.544Z,97730.50
2023-05-28T18:52:13.974Z,97736.13
2023-05-28T18:54:42.798Z,97735.97
2023-05-28T18:57:10.532Z,97734.03
2023-05-28T18:59:41.841Z,97740.34
2023-05-28T19:02:12.075Z,97739.66
2023-05-28T19:04:39.636Z,97741.06
2023-05-28T19:07:07.287Z,97741.00
2023-05-28T19:09:34.847Z,97743.09
2023-05-28T19:12:03.692Z,97738.72
2023-05-28T19:14:31.226Z,97739.97
2023-05-28T19:16:58.749Z,97748.25
2023-05-28T19:19:26.268Z,97742.63
2023-05-28T19:21:53.762Z,97751.97
2023-05-28T19:24:21.484Z,97756.16
2023-05-28T19:26:49.311Z,97754.25
2023-05-28T19:29:18.201Z,97760.09
2023-05-28T19:31:45.892Z,97763.94
2023-05-28T19:34:13.429Z,97771.69
2023-05-28T19:36:41.463Z,97774.03
2023-05-28T19:39:10.442Z,97775.78
2023-05-28T19:41:38.805Z,97780.22
2023-05-28T19:44:07.940Z,97779.94
2023-05-28T19:46:37.149Z,97779.09
2023-05-28T19:49:04.739Z,97785.69
2023-05-28T19:51:32.863Z,97786.00
2023-05-28T19:54:00.482Z,97792.72
2023-05-28T19:56:28.078Z,97791.28
2023-05-28T19:58:55.917Z,97796.28
2023-05-28T20:01:25.292Z,97797.28
2023-05-28T20:03:54.342Z,97803.09
2023-05-28T20:06:23.101Z,97806.22
2023-05-28T20:08:50.654Z,97800.28
2023-05-28T20:11:18.214Z,97805.78
2023-05-28T20:13:45.767Z,97806.69
2023-05-28T20:16:14.648Z,97815.53
2023-05-28T20:18:42.172Z,97808.31
2023-05-28T20:21:11.734Z,97811.03
2023-05-28T20:23:39.297Z,97814.75
2023-05-28T20:26:06.984Z,97815.22
2023-05-28T20:28:34.559Z,97824.97
2023-05-28T20:31:02.178Z,97824.66
2023-05-28T20:33:30.541Z,97830.50
2023-05-28T20:35:58.623Z,97830.84
2023-05-28T20:38:27.821Z,97825.75
2023-05-28T20:40:55.787Z,97823.38
2023-05-28T20:43:23.620Z,97826.41
2023-05-28T20:45:53.405Z,97829.44
2023-05-28T20:48:21.480Z,97828.19
2023-05-28T20:50:48.945Z,97829.84
2023-05-28T20:53:16.528Z,97834.06
2023-05-28T20:55:45.606Z,97838.56
2023-05-28T20:58:19.324Z,97837.94
2023-05-28T21:00:54.184Z,97838.69
2023-05-28T21:03:22.975Z,97846.72
2023-05-28T21:05:50.620Z,97843.44
2023-05-28T21:08:18.131Z,97843.38
2023-05-28T21:10:47.054Z,97845.50
2023-05-28T21:13:15.320Z,97846.59
2023-05-28T21:15:42.844Z,97851.63
2023-05-28T21:18:10.482Z,97850.28
2023-05-28T21:20:39.326Z,97850.97
2023-05-28T21:23:07.139Z,97860.94
2023-05-28T21:25:34.759Z,97853.19
2023-05-28T21:28:03.650Z,97853.16
2023-05-28T21:30:31.516Z,97856.00
2023-05-28T21:32:59.175Z,97862.38
2023-05-28T21:35:26.657Z,97858.94
2023-05-28T21:37:54.223Z,97860.25
2023-05-28T21:40:22.620Z,97857.72
2023-05-28T21:42:50.669Z,97856.47
2023-05-28T21:45:19.680Z,97867.25
2023-05-28T21:47:47.247Z,97873.66
2023-05-28T21:50:15.091Z,97872.75
2023-05-28T21:52:42.593Z,97859.59
2023-05-28T21:55:10.109Z,97864.19
2023-05-28T21:57:39.263Z,97870.53
2023-05-28T22:00:12.757Z,97857.44
2023-05-28T22:02:41.903Z,97863.31
2023-05-28T22:05:13.155Z,97865.22
2023-05-28T22:07:40.685Z,97870.22
2023-05-28T22:10:12.871Z,97869.13
2023-05-28T22:12:41.902Z,97873.66
2023-05-28T22:15:10.612Z,97870.78
2023-05-28T22:17:41.633Z,97870.16
2023-05-28T22:20:13.682Z,97865.78
2023-05-28T22:22:42.922Z,97868.88
2023-05-28T22:25:11.846Z,97861.56
2023-05-28T22:27:40.507Z,97860.34
2023-05-28T22:30:09.332Z,97853.03
2023-05-28T22:32:36.967Z,97856.13
2023-05-28T22:35:05.432Z,97859.72
2023-05-28T22:37:34.337Z,97866.56
2023-05-28T22:40:01.984Z,97864.53
2023-05-28T22:42:30.536Z,97858.41
2023-05-28T22:44:58.046Z,97860.28
2023-05-28T22:47:27.724Z,97858.06
2023-05-28T22:49:56.977Z,97875.78
2023-05-28T22:52:25.564Z,97869.19
2023-05-28T22:54:54.435Z,97871.22
2023-05-28T22:57:22.046Z,97870.19
2023-05-28T22:59:49.598Z,97879.69
2023-05-28T23:02:17.205Z,97861.69
2023-05-28T23:04:44.790Z,97863.31
2023-05-28T23:07:12.342Z,97872.41
2023-05-28T23:09:40.028Z,97870.19
2023-05-28T23:12:08.911Z,97862.88
2023-05-28T23:14:37.035Z,97860.41
2023-05-28T23:17:04.613Z,97866.28
2023-05-28T23:19:35.226Z,97861.25
2023-05-28T23:22:03.005Z,97866.75
2023-05-28T23:24:30.737Z,97868.56
2023-05-28T23:26:58.292Z,97869.69
2023-05-28T23:29:28.083Z,97872.63
2023-05-28T23:31:55.684Z,97874.44
2023-05-28T23:34:23.306Z,97868.28
2023-05-28T23:36:50.825Z,97873.47
2023-05-28T23:39:20.576Z,97865.22
2023-05-28T23:41:48.080Z,97867.69
2023-05-28T23:44:15.954Z,97872.50
2023-05-28T23:46:44.947Z,97867.56
2023-05-28T23:49:12.454Z,97876.16
2023-05-28T23:51:39.945Z,97871.81
2023-05-28T23:54:07.565Z,97868.16
2023-05-28T23:56:35.114Z,97875.91
2023-05-28T23:59:02.853Z,97872.03
